sensor_id;sensor_type;location;lat;lon;timestamp;P1;durP1;ratioP1;P2;durP2;ratioP2
56790;SDS011;42658;46.072;14.474;2022-07-23T00:00:19;32.33;;;29.00;;
56790;SDS011;42658;46.072;14.474;2022-07-23T00:02:46;33.33;;;29.85;;
56790;SDS011;42658;46.072;14.474;2022-07-23T00:05:13;31.05;;;27.75;;
56790;SDS011;42658;46.072;14.474;2022-07-23T00:07:40;33.15;;;29.33;;
56790;SDS011;42658;46.072;14.474;2022-07-23T00:10:07;32.50;;;29.08;;
56790;SDS011;42658;46.072;14.474;2022-07-23T00:12:35;32.40;;;29.13;;
56790;SDS011;42658;46.072;14.474;2022-07-23T00:15:15;33.88;;;30.30;;
56790;SDS011;42658;46.072;14.474;2022-07-23T00:17:42;35.08;;;29.88;;
56790;SDS011;42658;46.072;14.474;2022-07-23T00:20:09;33.35;;;29.95;;
56790;SDS011;42658;46.072;14.474;2022-07-23T00:22:36;32.75;;;29.33;;
56790;SDS011;42658;46.072;14.474;2022-07-23T00:25:03;33.30;;;29.77;;
56790;SDS011;42658;46.072;14.474;2022-07-23T00:27:50;34.28;;;30.55;;
56790;SDS011;42658;46.072;14.474;2022-07-23T00:30:17;33.53;;;29.90;;
56790;SDS011;42658;46.072;14.474;2022-07-23T00:32:49;32.13;;;28.88;;
56790;SDS011;42658;46.072;14.474;2022-07-23T00:35:22;32.67;;;29.38;;
56790;SDS011;42658;46.072;14.474;2022-07-23T00:37:50;33.28;;;29.83;;
56790;SDS011;42658;46.072;14.474;2022-07-23T00:40:17;32.95;;;29.63;;
56790;SDS011;42658;46.072;14.474;2022-07-23T00:42:44;33.78;;;30.33;;
56790;SDS011;42658;46.072;14.474;2022-07-23T00:45:11;32.97;;;29.67;;
56790;SDS011;42658;46.072;14.474;2022-07-23T00:47:38;33.50;;;30.20;;
56790;SDS011;42658;46.072;14.474;2022-07-23T00:50:06;33.92;;;30.63;;
56790;SDS011;42658;46.072;14.474;2022-07-23T00:52:34;33.92;;;30.45;;
56790;SDS011;42658;46.072;14.474;2022-07-23T00:55:02;32.90;;;29.63;;
56790;SDS011;42658;46.072;14.474;2022-07-23T00:57:30;33.72;;;30.23;;
56790;SDS011;42658;46.072;14.474;2022-07-23T00:59:57;32.63;;;29.42;;
56790;SDS011;42658;46.072;14.474;2022-07-23T01:02:27;33.38;;;29.77;;
56790;SDS011;42658;46.072;14.474;2022-07-23T01:04:54;32.63;;;29.15;;
56790;SDS011;42658;46.072;14.474;2022-07-23T01:07:21;30.90;;;27.90;;
56790;SDS011;42658;46.072;14.474;2022-07-23T01:09:48;31.83;;;28.75;;
56790;SDS011;42658;46.072;14.474;2022-07-23T01:12:16;30.85;;;27.52;;
56790;SDS011;42658;46.072;14.474;2022-07-23T01:14:43;31.20;;;27.83;;
56790;SDS011;42658;46.072;14.474;2022-07-23T01:17:10;30.35;;;27.45;;
56790;SDS011;42658;46.072;14.474;2022-07-23T01:19:36;33.63;;;28.67;;
56790;SDS011;42658;46.072;14.474;2022-07-23T01:22:04;31.17;;;27.98;;
56790;SDS011;42658;46.072;14.474;2022-07-23T01:24:31;31.40;;;28.40;;
56790;SDS011;42658;46.072;14.474;2022-07-23T01:27:03;32.17;;;28.80;;
56790;SDS011;42658;46.072;14.474;2022-07-23T01:29:34;30.95;;;27.85;;
56790;SDS011;42658;46.072;14.474;2022-07-23T01:32:06;32.05;;;28.95;;
56790;SDS011;42658;46.072;14.474;2022-07-23T01:34:33;30.92;;;27.92;;
56790;SDS011;42658;46.072;14.474;2022-07-23T01:37:00;31.83;;;28.75;;
56790;SDS011;42658;46.072;14.474;2022-07-23T01:39:27;32.40;;;29.10;;
56790;SDS011;42658;46.072;14.474;2022-07-23T01:41:55;32.78;;;29.48;;
56790;SDS011;42658;46.072;14.474;2022-07-23T01:44:23;32.67;;;29.17;;
56790;SDS011;42658;46.072;14.474;2022-07-23T01:46:50;32.60;;;29.48;;
56790;SDS011;42658;46.072;14.474;2022-07-23T01:49:18;32.78;;;29.25;;
56790;SDS011;42658;46.072;14.474;2022-07-23T01:52:08;33.30;;;29.90;;
56790;SDS011;42658;46.072;14.474;2022-07-23T01:57:08;32.63;;;29.42;;
56790;SDS011;42658;46.072;14.474;2022-07-23T01:59:36;32.60;;;29.50;;
56790;SDS011;42658;46.072;14.474;2022-07-23T02:02:05;32.42;;;29.13;;
56790;SDS011;42658;46.072;14.474;2022-07-23T02:04:33;32.85;;;28.88;;
56790;SDS011;42658;46.072;14.474;2022-07-23T02:07:03;32.53;;;29.20;;
56790;SDS011;42658;46.072;14.474;2022-07-23T02:09:30;31.98;;;28.88;;
56790;SDS011;42658;46.072;14.474;2022-07-23T02:14:53;31.58;;;28.48;;
56790;SDS011;42658;46.072;14.474;2022-07-23T02:17:23;31.85;;;28.70;;
56790;SDS011;42658;46.072;14.474;2022-07-23T02:19:50;32.28;;;29.08;;
56790;SDS011;42658;46.072;14.474;2022-07-23T02:22:17;32.63;;;29.50;;
56790;SDS011;42658;46.072;14.474;2022-07-23T02:24:44;33.08;;;29.85;;
56790;SDS011;42658;46.072;14.474;2022-07-23T02:27:11;33.33;;;30.02;;
56790;SDS011;42658;46.072;14.474;2022-07-23T02:29:38;32.83;;;29.48;;
56790;SDS011;42658;46.072;14.474;2022-07-23T02:32:05;33.42;;;29.98;;
56790;SDS011;42658;46.072;14.474;2022-07-23T02:34:33;32.35;;;28.73;;
56790;SDS011;42658;46.072;14.474;2022-07-23T02:37:00;31.30;;;27.92;;
56790;SDS011;42658;46.072;14.474;2022-07-23T02:39:28;31.70;;;28.48;;
56790;SDS011;42658;46.072;14.474;2022-07-23T02:41:55;30.98;;;27.98;;
56790;SDS011;42658;46.072;14.474;2022-07-23T02:44:22;31.40;;;28.20;;
56790;SDS011;42658;46.072;14.474;2022-07-23T02:46:51;28.40;;;25.73;;
56790;SDS011;42658;46.072;14.474;2022-07-23T02:49:19;26.45;;;23.85;;
56790;SDS011;42658;46.072;14.474;2022-07-23T02:51:47;26.95;;;23.55;;
56790;SDS011;42658;46.072;14.474;2022-07-23T02:54:15;26.15;;;23.63;;
56790;SDS011;42658;46.072;14.474;2022-07-23T02:56:42;26.35;;;23.73;;
56790;SDS011;42658;46.072;14.474;2022-07-23T02:59:10;26.73;;;23.95;;
56790;SDS011;42658;46.072;14.474;2022-07-23T03:01:38;27.45;;;24.73;;
56790;SDS011;42658;46.072;14.474;2022-07-23T03:04:06;27.48;;;24.55;;
56790;SDS011;42658;46.072;14.474;2022-07-23T03:06:33;28.55;;;25.52;;
56790;SDS011;42658;46.072;14.474;2022-07-23T03:09:00;29.42;;;26.52;;
56790;SDS011;42658;46.072;14.474;2022-07-23T03:11:27;29.83;;;26.73;;
56790;SDS011;42658;46.072;14.474;2022-07-23T03:13:54;30.30;;;26.90;;
56790;SDS011;42658;46.072;14.474;2022-07-23T03:16:21;29.55;;;26.45;;
56790;SDS011;42658;46.072;14.474;2022-07-23T03:18:49;30.75;;;27.70;;
56790;SDS011;42658;46.072;14.474;2022-07-23T03:21:16;30.65;;;27.65;;
56790;SDS011;42658;46.072;14.474;2022-07-23T03:23:43;30.13;;;27.13;;
56790;SDS011;42658;46.072;14.474;2022-07-23T03:26:10;29.98;;;27.05;;
56790;SDS011;42658;46.072;14.474;2022-07-23T03:28:37;30.75;;;27.58;;
56790;SDS011;42658;46.072;14.474;2022-07-23T03:31:04;29.92;;;26.92;;
56790;SDS011;42658;46.072;14.474;2022-07-23T03:33:31;30.00;;;27.00;;
56790;SDS011;42658;46.072;14.474;2022-07-23T03:35:58;29.90;;;26.88;;
56790;SDS011;42658;46.072;14.474;2022-07-23T03:38:28;30.80;;;27.67;;
56790;SDS011;42658;46.072;14.474;2022-07-23T03:40:55;29.33;;;26.40;;
56790;SDS011;42658;46.072;14.474;2022-07-23T03:43:22;30.05;;;27.02;;
56790;SDS011;42658;46.072;14.474;2022-07-23T03:45:52;28.98;;;25.98;;
56790;SDS011;42658;46.072;14.474;2022-07-23T03:48:19;29.45;;;26.55;;
56790;SDS011;42658;46.072;14.474;2022-07-23T03:50:46;27.83;;;24.95;;
56790;SDS011;42658;46.072;14.474;2022-07-23T03:53:12;27.90;;;24.83;;
56790;SDS011;42658;46.072;14.474;2022-07-23T03:55:40;27.15;;;24.35;;
56790;SDS011;42658;46.072;14.474;2022-07-23T03:58:07;28.15;;;25.30;;
56790;SDS011;42658;46.072;14.474;2022-07-23T04:00:34;27.23;;;24.50;;
56790;SDS011;42658;46.072;14.474;2022-07-23T04:03:02;29.20;;;26.30;;
56790;SDS011;42658;46.072;14.474;2022-07-23T04:05:29;27.45;;;24.75;;
56790;SDS011;42658;46.072;14.474;2022-07-23T04:08:06;26.55;;;23.88;;
56790;SDS011;42658;46.072;14.474;2022-07-23T04:10:37;27.90;;;24.95;;
56790;SDS011;42658;46.072;14.474;2022-07-23T04:13:06;27.75;;;24.95;;
56790;SDS011;42658;46.072;14.474;2022-07-23T04:15:33;25.48;;;22.80;;
56790;SDS011;42658;46.072;14.474;2022-07-23T04:18:00;24.50;;;22.00;;
56790;SDS011;42658;46.072;14.474;2022-07-23T04:20:36;25.25;;;21.52;;
56790;SDS011;42658;46.072;14.474;2022-07-23T04:23:08;25.30;;;22.13;;
56790;SDS011;42658;46.072;14.474;2022-07-23T04:25:36;24.20;;;21.63;;
56790;SDS011;42658;46.072;14.474;2022-07-23T04:28:04;23.60;;;21.25;;
56790;SDS011;42658;46.072;14.474;2022-07-23T04:30:31;25.38;;;22.50;;
56790;SDS011;42658;46.072;14.474;2022-07-23T04:32:58;23.90;;;21.52;;
56790;SDS011;42658;46.072;14.474;2022-07-23T04:35:27;25.40;;;22.75;;
56790;SDS011;42658;46.072;14.474;2022-07-23T04:38:02;24.92;;;22.33;;
56790;SDS011;42658;46.072;14.474;2022-07-23T04:40:29;25.88;;;23.13;;
56790;SDS011;42658;46.072;14.474;2022-07-23T04:42:57;27.02;;;24.25;;
56790;SDS011;42658;46.072;14.474;2022-07-23T04:45:24;24.52;;;22.08;;
56790;SDS011;42658;46.072;14.474;2022-07-23T04:47:52;25.55;;;22.85;;
56790;SDS011;42658;46.072;14.474;2022-07-23T04:50:18;25.23;;;22.70;;
56790;SDS011;42658;46.072;14.474;2022-07-23T04:52:49;27.05;;;22.98;;
56790;SDS011;42658;46.072;14.474;2022-07-23T04:55:16;25.77;;;22.38;;
56790;SDS011;42658;46.072;14.474;2022-07-23T04:57:44;24.50;;;21.92;;
56790;SDS011;42658;46.072;14.474;2022-07-23T05:00:11;26.60;;;21.42;;
56790;SDS011;42658;46.072;14.474;2022-07-23T05:02:38;23.60;;;21.20;;
56790;SDS011;42658;46.072;14.474;2022-07-23T05:05:05;25.98;;;21.40;;
56790;SDS011;42658;46.072;14.474;2022-07-23T05:07:33;28.25;;;23.10;;
56790;SDS011;42658;46.072;14.474;2022-07-23T05:10:00;25.25;;;22.63;;
56790;SDS011;42658;46.072;14.474;2022-07-23T05:12:28;25.63;;;22.00;;
56790;SDS011;42658;46.072;14.474;2022-07-23T05:14:55;25.63;;;22.95;;
56790;SDS011;42658;46.072;14.474;2022-07-23T05:17:22;25.15;;;22.55;;
56790;SDS011;42658;46.072;14.474;2022-07-23T05:19:50;25.00;;;22.45;;
56790;SDS011;42658;46.072;14.474;2022-07-23T05:22:23;26.60;;;23.80;;
56790;SDS011;42658;46.072;14.474;2022-07-23T05:24:50;33.10;;;23.92;;
56790;SDS011;42658;46.072;14.474;2022-07-23T05:27:17;27.10;;;23.27;;
56790;SDS011;42658;46.072;14.474;2022-07-23T05:29:44;25.92;;;22.92;;
56790;SDS011;42658;46.072;14.474;2022-07-23T05:32:11;29.15;;;24.00;;
56790;SDS011;42658;46.072;14.474;2022-07-23T05:37:11;26.38;;;23.67;;
56790;SDS011;42658;46.072;14.474;2022-07-23T05:39:38;28.00;;;25.38;;
56790;SDS011;42658;46.072;14.474;2022-07-23T05:42:05;31.65;;;24.60;;
56790;SDS011;42658;46.072;14.474;2022-07-23T05:44:32;26.75;;;23.95;;
56790;SDS011;42658;46.072;14.474;2022-07-23T05:47:00;27.58;;;24.75;;
56790;SDS011;42658;46.072;14.474;2022-07-23T05:49:28;29.17;;;24.60;;
56790;SDS011;42658;46.072;14.474;2022-07-23T05:52:05;28.17;;;24.00;;
56790;SDS011;42658;46.072;14.474;2022-07-23T05:54:50;26.65;;;23.83;;
56790;SDS011;42658;46.072;14.474;2022-07-23T05:57:17;27.08;;;24.10;;
56790;SDS011;42658;46.072;14.474;2022-07-23T05:59:50;26.65;;;23.95;;
56790;SDS011;42658;46.072;14.474;2022-07-23T06:02:17;31.95;;;25.27;;
56790;SDS011;42658;46.072;14.474;2022-07-23T06:04:44;28.10;;;23.30;;
56790;SDS011;42658;46.072;14.474;2022-07-23T06:07:26;27.73;;;24.65;;
56790;SDS011;42658;46.072;14.474;2022-07-23T06:09:53;27.60;;;24.67;;
56790;SDS011;42658;46.072;14.474;2022-07-23T06:12:21;37.42;;;28.00;;
56790;SDS011;42658;46.072;14.474;2022-07-23T06:14:48;40.03;;;30.65;;
56790;SDS011;42658;46.072;14.474;2022-07-23T06:17:16;38.70;;;30.60;;
56790;SDS011;42658;46.072;14.474;2022-07-23T06:19:43;33.70;;;28.13;;
56790;SDS011;42658;46.072;14.474;2022-07-23T06:22:10;28.67;;;25.67;;
56790;SDS011;42658;46.072;14.474;2022-07-23T06:24:37;31.73;;;24.75;;
56790;SDS011;42658;46.072;14.474;2022-07-23T06:27:04;29.15;;;25.27;;
56790;SDS011;42658;46.072;14.474;2022-07-23T06:29:31;29.38;;;24.88;;
56790;SDS011;42658;46.072;14.474;2022-07-23T06:31:58;28.80;;;24.48;;
56790;SDS011;42658;46.072;14.474;2022-07-23T06:34:25;26.27;;;23.52;;
56790;SDS011;42658;46.072;14.474;2022-07-23T06:36:54;25.67;;;22.98;;
56790;SDS011;42658;46.072;14.474;2022-07-23T06:39:21;25.98;;;23.05;;
56790;SDS011;42658;46.072;14.474;2022-07-23T06:41:48;32.10;;;24.27;;
56790;SDS011;42658;46.072;14.474;2022-07-23T06:44:17;34.83;;;23.23;;
56790;SDS011;42658;46.072;14.474;2022-07-23T06:46:46;49.20;;;23.85;;
56790;SDS011;42658;46.072;14.474;2022-07-23T06:49:14;32.22;;;23.83;;
56790;SDS011;42658;46.072;14.474;2022-07-23T06:51:41;32.35;;;23.48;;
56790;SDS011;42658;46.072;14.474;2022-07-23T06:54:08;34.65;;;23.00;;
56790;SDS011;42658;46.072;14.474;2022-07-23T06:56:35;33.28;;;22.67;;
56790;SDS011;42658;46.072;14.474;2022-07-23T06:59:02;25.65;;;22.40;;
56790;SDS011;42658;46.072;14.474;2022-07-23T07:01:29;28.98;;;21.25;;
56790;SDS011;42658;46.072;14.474;2022-07-23T07:03:56;31.45;;;21.55;;
56790;SDS011;42658;46.072;14.474;2022-07-23T07:06:23;32.03;;;21.98;;
56790;SDS011;42658;46.072;14.474;2022-07-23T07:08:50;30.55;;;20.75;;
56790;SDS011;42658;46.072;14.474;2022-07-23T07:11:17;32.70;;;21.58;;
56790;SDS011;42658;46.072;14.474;2022-07-23T07:13:44;26.75;;;19.55;;
56790;SDS011;42658;46.072;14.474;2022-07-23T07:16:11;22.73;;;19.55;;
56790;SDS011;42658;46.072;14.474;2022-07-23T07:18:38;28.50;;;19.10;;
56790;SDS011;42658;46.072;14.474;2022-07-23T07:21:05;31.83;;;19.50;;
56790;SDS011;42658;46.072;14.474;2022-07-23T07:23:32;26.38;;;20.52;;
56790;SDS011;42658;46.072;14.474;2022-07-23T07:25:59;29.75;;;19.75;;
56790;SDS011;42658;46.072;14.474;2022-07-23T07:28:26;23.70;;;19.20;;
56790;SDS011;42658;46.072;14.474;2022-07-23T07:30:53;25.98;;;19.48;;
56790;SDS011;42658;46.072;14.474;2022-07-23T07:33:20;24.80;;;18.95;;
56790;SDS011;42658;46.072;14.474;2022-07-23T07:35:48;24.92;;;19.10;;
56790;SDS011;42658;46.072;14.474;2022-07-23T07:38:15;19.98;;;17.85;;
56790;SDS011;42658;46.072;14.474;2022-07-23T07:40:42;25.13;;;19.02;;
56790;SDS011;42658;46.072;14.474;2022-07-23T07:43:09;20.42;;;18.05;;
56790;SDS011;42658;46.072;14.474;2022-07-23T07:45:35;21.48;;;18.33;;
56790;SDS011;42658;46.072;14.474;2022-07-23T07:48:03;19.98;;;18.08;;
56790;SDS011;42658;46.072;14.474;2022-07-23T07:50:30;20.92;;;18.08;;
56790;SDS011;42658;46.072;14.474;2022-07-23T07:52:57;20.85;;;18.65;;
56790;SDS011;42658;46.072;14.474;2022-07-23T07:55:24;21.58;;;17.90;;
56790;SDS011;42658;46.072;14.474;2022-07-23T07:57:51;19.85;;;17.73;;
56790;SDS011;42658;46.072;14.474;2022-07-23T08:00:18;20.50;;;18.17;;
56790;SDS011;42658;46.072;14.474;2022-07-23T08:02:46;20.00;;;17.90;;
56790;SDS011;42658;46.072;14.474;2022-07-23T08:05:25;21.65;;;18.00;;
56790;SDS011;42658;46.072;14.474;2022-07-23T08:07:54;20.08;;;18.02;;
56790;SDS011;42658;46.072;14.474;2022-07-23T08:10:25;19.67;;;17.58;;
56790;SDS011;42658;46.072;14.474;2022-07-23T08:12:53;19.58;;;17.55;;
56790;SDS011;42658;46.072;14.474;2022-07-23T08:15:27;20.23;;;18.05;;
56790;SDS011;42658;46.072;14.474;2022-07-23T08:17:55;19.70;;;17.70;;
56790;SDS011;42658;46.072;14.474;2022-07-23T08:20:23;20.00;;;17.90;;
56790;SDS011;42658;46.072;14.474;2022-07-23T08:22:52;18.67;;;16.88;;
56790;SDS011;42658;46.072;14.474;2022-07-23T08:25:24;19.77;;;17.42;;
56790;SDS011;42658;46.072;14.474;2022-07-23T08:27:54;19.92;;;17.55;;
56790;SDS011;42658;46.072;14.474;2022-07-23T08:30:23;20.63;;;17.15;;
56790;SDS011;42658;46.072;14.474;2022-07-23T08:35:22;19.50;;;17.50;;
56790;SDS011;42658;46.072;14.474;2022-07-23T08:37:56;19.15;;;16.95;;
56790;SDS011;42658;46.072;14.474;2022-07-23T08:40:29;17.85;;;16.05;;
56790;SDS011;42658;46.072;14.474;2022-07-23T08:42:57;18.00;;;16.27;;
56790;SDS011;42658;46.072;14.474;2022-07-23T08:45:25;18.83;;;16.90;;
56790;SDS011;42658;46.072;14.474;2022-07-23T08:47:54;19.25;;;17.35;;
56790;SDS011;42658;46.072;14.474;2022-07-23T08:50:23;18.40;;;16.50;;
56790;SDS011;42658;46.072;14.474;2022-07-23T08:52:50;18.67;;;16.88;;
56790;SDS011;42658;46.072;14.474;2022-07-23T08:55:22;18.92;;;16.92;;
56790;SDS011;42658;46.072;14.474;2022-07-23T08:57:50;19.58;;;16.92;;
56790;SDS011;42658;46.072;14.474;2022-07-23T09:00:20;19.27;;;17.38;;
56790;SDS011;42658;46.072;14.474;2022-07-23T09:02:48;18.73;;;16.48;;
56790;SDS011;42658;46.072;14.474;2022-07-23T09:05:16;18.58;;;16.67;;
56790;SDS011;42658;46.072;14.474;2022-07-23T09:15:58;18.40;;;16.50;;
56790;SDS011;42658;46.072;14.474;2022-07-23T09:18:34;17.65;;;15.85;;
56790;SDS011;42658;46.072;14.474;2022-07-23T09:21:05;17.67;;;15.98;;
56790;SDS011;42658;46.072;14.474;2022-07-23T09:26:54;18.60;;;16.80;;
56790;SDS011;42658;46.072;14.474;2022-07-23T09:29:10;18.00;;;16.10;;
56790;SDS011;42658;46.072;14.474;2022-07-23T09:34:23;17.42;;;15.70;;
56790;SDS011;42658;46.072;14.474;2022-07-23T09:36:58;16.87;;;15.27;;
56790;SDS011;42658;46.072;14.474;2022-07-23T09:39:40;17.10;;;15.40;;
56790;SDS011;42658;46.072;14.474;2022-07-23T09:42:26;17.88;;;16.08;;
56790;SDS011;42658;46.072;14.474;2022-07-23T09:44:55;16.92;;;15.25;;
56790;SDS011;42658;46.072;14.474;2022-07-23T09:47:24;17.80;;;16.10;;
56790;SDS011;42658;46.072;14.474;2022-07-23T09:50:05;18.02;;;16.15;;
56790;SDS011;42658;46.072;14.474;2022-07-23T09:52:44;17.83;;;16.02;;
56790;SDS011;42658;46.072;14.474;2022-07-23T09:55:16;17.35;;;15.65;;
56790;SDS011;42658;46.072;14.474;2022-07-23T09:57:44;18.15;;;15.85;;
56790;SDS011;42658;46.072;14.474;2022-07-23T10:00:13;17.98;;;16.23;;
56790;SDS011;42658;46.072;14.474;2022-07-23T10:02:40;17.08;;;15.38;;
56790;SDS011;42658;46.072;14.474;2022-07-23T10:05:39;17.50;;;15.80;;
56790;SDS011;42658;46.072;14.474;2022-07-23T10:08:24;17.20;;;15.50;;
56790;SDS011;42658;46.072;14.474;2022-07-23T10:11:10;17.17;;;15.48;;
56790;SDS011;42658;46.072;14.474;2022-07-23T10:14:02;16.90;;;15.15;;
56790;SDS011;42658;46.072;14.474;2022-07-23T10:16:51;16.42;;;14.73;;
56790;SDS011;42658;46.072;14.474;2022-07-23T10:19:18;16.73;;;15.00;;
56790;SDS011;42658;46.072;14.474;2022-07-23T10:21:54;16.50;;;14.85;;
56790;SDS011;42658;46.072;14.474;2022-07-23T10:30:06;15.88;;;14.30;;
56790;SDS011;42658;46.072;14.474;2022-07-23T10:32:48;16.63;;;15.13;;
56790;SDS011;42658;46.072;14.474;2022-07-23T10:43:22;15.90;;;14.40;;
56790;SDS011;42658;46.072;14.474;2022-07-23T10:45:50;15.65;;;14.15;;
56790;SDS011;42658;46.072;14.474;2022-07-23T10:48:24;16.63;;;14.93;;
56790;SDS011;42658;46.072;14.474;2022-07-23T10:51:06;16.33;;;14.63;;
56790;SDS011;42658;46.072;14.474;2022-07-23T11:02:40;16.35;;;14.77;;
56790;SDS011;42658;46.072;14.474;2022-07-23T11:05:10;15.85;;;14.25;;
56790;SDS011;42658;46.072;14.474;2022-07-23T11:10:37;15.15;;;13.65;;
56790;SDS011;42658;46.072;14.474;2022-07-23T11:18:52;16.40;;;14.80;;
56790;SDS011;42658;46.072;14.474;2022-07-23T11:26:48;14.65;;;13.30;;
56790;SDS011;42658;46.072;14.474;2022-07-23T11:31:58;15.23;;;13.73;;
56790;SDS011;42658;46.072;14.474;2022-07-23T11:34:31;14.82;;;13.43;;
56790;SDS011;42658;46.072;14.474;2022-07-23T11:37:02;15.02;;;13.63;;
56790;SDS011;42658;46.072;14.474;2022-07-23T11:39:30;15.52;;;13.95;;
56790;SDS011;42658;46.072;14.474;2022-07-23T11:41:58;14.82;;;13.32;;
56790;SDS011;42658;46.072;14.474;2022-07-23T11:44:32;14.98;;;13.48;;
56790;SDS011;42658;46.072;14.474;2022-07-23T11:47:06;15.07;;;13.68;;
56790;SDS011;42658;46.072;14.474;2022-07-23T11:49:35;14.40;;;12.95;;
56790;SDS011;42658;46.072;14.474;2022-07-23T11:52:03;14.60;;;13.20;;
56790;SDS011;42658;46.072;14.474;2022-07-23T11:54:31;15.18;;;13.50;;
56790;SDS011;42658;46.072;14.474;2022-07-23T11:57:05;15.07;;;13.57;;
56790;SDS011;42658;46.072;14.474;2022-07-23T11:59:32;14.85;;;13.38;;
56790;SDS011;42658;46.072;14.474;2022-07-23T12:02:02;14.45;;;13.05;;
56790;SDS011;42658;46.072;14.474;2022-07-23T12:04:40;13.90;;;12.60;;
56790;SDS011;42658;46.072;14.474;2022-07-23T12:12:42;15.32;;;13.77;;
56790;SDS011;42658;46.072;14.474;2022-07-23T12:15:17;14.70;;;13.30;;
56790;SDS011;42658;46.072;14.474;2022-07-23T12:17:46;15.38;;;13.77;;
56790;SDS011;42658;46.072;14.474;2022-07-23T12:20:24;15.20;;;13.60;;
56790;SDS011;42658;46.072;14.474;2022-07-23T12:22:55;14.25;;;12.85;;
56790;SDS011;42658;46.072;14.474;2022-07-23T12:25:25;14.43;;;13.02;;
56790;SDS011;42658;46.072;14.474;2022-07-23T12:28:01;13.98;;;12.68;;
56790;SDS011;42658;46.072;14.474;2022-07-23T12:30:30;14.02;;;12.70;;
56790;SDS011;42658;46.072;14.474;2022-07-23T12:33:00;13.73;;;12.43;;
56790;SDS011;42658;46.072;14.474;2022-07-23T12:38:07;14.32;;;12.93;;
56790;SDS011;42658;46.072;14.474;2022-07-23T12:43:08;13.50;;;12.20;;
56790;SDS011;42658;46.072;14.474;2022-07-23T12:45:46;14.75;;;13.27;;
56790;SDS011;42658;46.072;14.474;2022-07-23T12:50:53;14.98;;;13.48;;
56790;SDS011;42658;46.072;14.474;2022-07-23T12:53:22;13.43;;;12.00;;
56790;SDS011;42658;46.072;14.474;2022-07-23T12:55:51;14.57;;;13.07;;
56790;SDS011;42658;46.072;14.474;2022-07-23T12:58:47;14.30;;;12.73;;
56790;SDS011;42658;46.072;14.474;2022-07-23T13:04:08;13.77;;;12.37;;
56790;SDS011;42658;46.072;14.474;2022-07-23T13:09:11;13.35;;;12.05;;
56790;SDS011;42658;46.072;14.474;2022-07-23T13:11:41;13.23;;;11.85;;
56790;SDS011;42658;46.072;14.474;2022-07-23T13:14:08;14.07;;;12.68;;
56790;SDS011;42658;46.072;14.474;2022-07-23T13:16:36;13.07;;;11.75;;
56790;SDS011;42658;46.072;14.474;2022-07-23T13:19:23;12.80;;;11.60;;
56790;SDS011;42658;46.072;14.474;2022-07-23T13:21:52;13.70;;;12.30;;
56790;SDS011;42658;46.072;14.474;2022-07-23T13:24:20;13.35;;;11.95;;
56790;SDS011;42658;46.072;14.474;2022-07-23T13:26:47;12.95;;;11.60;;
56790;SDS011;42658;46.072;14.474;2022-07-23T13:29:17;12.80;;;11.50;;
56790;SDS011;42658;46.072;14.474;2022-07-23T13:31:45;12.73;;;11.50;;
56790;SDS011;42658;46.072;14.474;2022-07-23T13:34:13;12.68;;;11.48;;
56790;SDS011;42658;46.072;14.474;2022-07-23T13:36:40;13.32;;;12.02;;
56790;SDS011;42658;46.072;14.474;2022-07-23T13:39:07;13.10;;;11.80;;
56790;SDS011;42658;46.072;14.474;2022-07-23T13:41:35;12.88;;;11.68;;
56790;SDS011;42658;46.072;14.474;2022-07-23T13:44:03;12.95;;;11.68;;
56790;SDS011;42658;46.072;14.474;2022-07-23T13:46:32;11.98;;;10.88;;
56790;SDS011;42658;46.072;14.474;2022-07-23T13:49:00;12.30;;;11.10;;
56790;SDS011;42658;46.072;14.474;2022-07-23T13:51:28;12.82;;;11.63;;
56790;SDS011;42658;46.072;14.474;2022-07-23T13:53:55;12.25;;;11.05;;
56790;SDS011;42658;46.072;14.474;2022-07-23T13:56:25;12.20;;;11.00;;
56790;SDS011;42658;46.072;14.474;2022-07-23T13:58:52;12.50;;;11.30;;
56790;SDS011;42658;46.072;14.474;2022-07-23T14:01:19;12.05;;;10.88;;
56790;SDS011;42658;46.072;14.474;2022-07-23T14:03:46;12.35;;;11.13;;
56790;SDS011;42658;46.072;14.474;2022-07-23T14:06:13;12.13;;;10.93;;
56790;SDS011;42658;46.072;14.474;2022-07-23T14:08:42;11.95;;;10.73;;
56790;SDS011;42658;46.072;14.474;2022-07-23T14:11:11;12.15;;;10.95;;
56790;SDS011;42658;46.072;14.474;2022-07-23T14:13:38;11.35;;;10.25;;
56790;SDS011;42658;46.072;14.474;2022-07-23T14:16:06;11.93;;;10.80;;
56790;SDS011;42658;46.072;14.474;2022-07-23T14:18:34;11.60;;;10.40;;
56790;SDS011;42658;46.072;14.474;2022-07-23T14:21:01;11.95;;;10.77;;
56790;SDS011;42658;46.072;14.474;2022-07-23T14:23:28;11.40;;;10.30;;
56790;SDS011;42658;46.072;14.474;2022-07-23T14:26:15;11.40;;;10.30;;
56790;SDS011;42658;46.072;14.474;2022-07-23T14:28:42;11.80;;;10.60;;
56790;SDS011;42658;46.072;14.474;2022-07-23T14:31:09;12.38;;;10.77;;
56790;SDS011;42658;46.072;14.474;2022-07-23T14:33:46;10.90;;;9.90;;
56790;SDS011;42658;46.072;14.474;2022-07-23T14:36:13;11.73;;;10.63;;
56790;SDS011;42658;46.072;14.474;2022-07-23T14:38:41;10.98;;;9.88;;
56790;SDS011;42658;46.072;14.474;2022-07-23T14:41:08;11.35;;;10.25;;
56790;SDS011;42658;46.072;14.474;2022-07-23T14:43:36;10.43;;;9.35;;
56790;SDS011;42658;46.072;14.474;2022-07-23T14:46:04;11.15;;;10.05;;
56790;SDS011;42658;46.072;14.474;2022-07-23T14:48:31;10.80;;;9.80;;
56790;SDS011;42658;46.072;14.474;2022-07-23T14:50:58;10.85;;;9.73;;
56790;SDS011;42658;46.072;14.474;2022-07-23T14:53:25;11.38;;;10.27;;
56790;SDS011;42658;46.072;14.474;2022-07-23T14:55:53;10.30;;;9.30;;
56790;SDS011;42658;46.072;14.474;2022-07-23T14:58:21;11.98;;;9.35;;
56790;SDS011;42658;46.072;14.474;2022-07-23T15:00:48;10.25;;;9.15;;
56790;SDS011;42658;46.072;14.474;2022-07-23T15:03:16;9.60;;;8.70;;
56790;SDS011;42658;46.072;14.474;2022-07-23T15:05:43;10.40;;;9.40;;
56790;SDS011;42658;46.072;14.474;2022-07-23T15:08:10;10.15;;;9.15;;
56790;SDS011;42658;46.072;14.474;2022-07-23T15:10:37;10.35;;;9.35;;
56790;SDS011;42658;46.072;14.474;2022-07-23T15:13:04;10.07;;;9.13;;
56790;SDS011;42658;46.072;14.474;2022-07-23T15:15:33;10.23;;;9.23;;
56790;SDS011;42658;46.072;14.474;2022-07-23T15:18:01;9.70;;;8.70;;
56790;SDS011;42658;46.072;14.474;2022-07-23T15:20:28;9.40;;;8.40;;
56790;SDS011;42658;46.072;14.474;2022-07-23T15:23:06;9.38;;;8.48;;
56790;SDS011;42658;46.072;14.474;2022-07-23T15:25:35;10.50;;;8.98;;
56790;SDS011;42658;46.072;14.474;2022-07-23T15:28:03;9.82;;;8.82;;
56790;SDS011;42658;46.072;14.474;2022-07-23T15:30:33;9.70;;;8.70;;
56790;SDS011;42658;46.072;14.474;2022-07-23T15:33:03;9.48;;;8.57;;
56790;SDS011;42658;46.072;14.474;2022-07-23T15:35:32;10.35;;;8.75;;
56790;SDS011;42658;46.072;14.474;2022-07-23T15:37:59;9.38;;;8.38;;
56790;SDS011;42658;46.072;14.474;2022-07-23T15:40:32;9.68;;;8.68;;
56790;SDS011;42658;46.072;14.474;2022-07-23T15:43:00;9.82;;;8.55;;
56790;SDS011;42658;46.072;14.474;2022-07-23T15:45:28;9.85;;;8.35;;